createdAt,value
2019-06-01T00:00:16.064Z,19.27
2019-06-01T00:02:51.194Z,21.13
2019-06-01T00:05:15.561Z,20.70
2019-06-01T00:07:44.927Z,18.17
2019-06-01T00:10:13.906Z,21.03
2019-06-01T00:12:43.510Z,20.10
2019-06-01T00:15:12.569Z,20.00
2019-06-01T00:17:41.842Z,23.50
2019-06-01T00:20:10.912Z,18.47
2019-06-01T00:22:39.527Z,23.43
2019-06-01T00:25:08.745Z,20.73
2019-06-01T00:27:37.870Z,23.60
2019-06-01T00:30:07.560Z,20.67
2019-06-01T00:32:36.214Z,15.80
2019-06-01T00:35:05.893Z,17.20
2019-06-01T00:37:34.532Z,20.90
2019-06-01T00:40:03.312Z,20.90
2019-06-01T00:42:32.332Z,22.83
2019-06-01T00:45:00.996Z,24.57
2019-06-01T00:47:29.951Z,20.17
2019-06-01T00:49:58.576Z,21.83
2019-06-01T00:52:27.231Z,18.13
2019-06-01T00:54:55.939Z,20.37
2019-06-01T00:57:24.651Z,20.00
2019-06-01T00:59:56.444Z,21.53
2019-06-01T01:02:25.104Z,19.90
2019-06-01T01:05:10.967Z,29.57
2019-06-01T01:07:39.672Z,22.63
2019-06-01T01:10:08.703Z,21.73
2019-06-01T01:12:38.991Z,21.07
2019-06-01T01:15:07.908Z,20.60
2019-06-01T01:17:36.720Z,18.97
2019-06-01T01:20:08.643Z,24.13
2019-06-01T01:22:37.336Z,20.60
2019-06-01T01:25:06.973Z,20.17
2019-06-01T01:27:35.679Z,18.30
2019-06-01T01:30:06.135Z,21.70
2019-06-01T01:32:34.790Z,23.00
2019-06-01T01:35:04.089Z,21.73
2019-06-01T01:37:32.885Z,19.30
2019-06-01T01:40:01.557Z,18.77
2019-06-01T01:42:30.334Z,23.43
2019-06-01T01:44:58.995Z,19.97
2019-06-01T01:47:27.672Z,22.03
2019-06-01T01:49:56.388Z,23.13
2019-06-01T01:52:25.102Z,25.50
2019-06-01T01:55:14.410Z,22.13
2019-06-01T01:57:43.121Z,19.00
2019-06-01T02:00:13.590Z,20.77
2019-06-01T02:02:42.351Z,21.70
2019-06-01T02:05:12.042Z,18.80
2019-06-01T02:07:41.161Z,24.63
2019-06-01T02:10:10.824Z,18.40
2019-06-01T02:12:39.495Z,21.20
2019-06-01T02:15:08.659Z,23.27
2019-06-01T02:17:37.317Z,20.27
2019-06-01T02:20:06.683Z,20.40
2019-06-01T02:22:35.333Z,17.67
2019-06-01T02:25:05.646Z,19.00
2019-06-01T02:27:34.444Z,21.47
2019-06-01T02:30:05.656Z,23.53
2019-06-01T02:32:33.875Z,23.57
2019-06-01T02:35:02.787Z,24.60
2019-06-01T02:37:31.558Z,20.00
2019-06-01T02:40:00.986Z,21.60
2019-06-01T02:42:30.114Z,20.97
2019-06-01T02:44:59.253Z,18.20
2019-06-01T02:47:28.046Z,30.13
2019-06-01T02:49:57.658Z,20.73
2019-06-01T02:52:26.622Z,18.57
2019-06-01T02:54:55.591Z,22.87
2019-06-01T02:57:24.442Z,20.50
2019-06-01T02:59:56.326Z,22.20
2019-06-01T03:02:25.036Z,21.07
2019-06-01T03:04:55.413Z,24.07
2019-06-01T03:07:26.070Z,19.53
2019-06-01T03:09:56.016Z,20.83
2019-06-01T03:12:26.312Z,21.27
2019-06-01T03:14:58.319Z,23.03
2019-06-01T03:17:30.045Z,21.60
2019-06-01T03:20:02.476Z,22.83
2019-06-01T03:22:33.432Z,22.37
2019-06-01T03:25:05.931Z,19.97
2019-06-01T03:27:36.488Z,22.40
2019-06-01T03:30:09.843Z,19.07
2019-06-01T03:32:38.387Z,17.57
2019-06-01T03:35:07.455Z,20.10
2019-06-01T03:37:36.132Z,22.90
2019-06-01T03:40:15.933Z,19.57
2019-06-01T03:42:37.828Z,20.77
2019-06-01T03:45:07.624Z,22.87
2019-06-01T03:47:36.456Z,23.30
2019-06-01T03:50:06.950Z,19.80
2019-06-01T03:52:35.584Z,21.30
2019-06-01T03:55:05.881Z,18.90
2019-06-01T03:57:34.582Z,20.07
2019-06-01T04:00:04.991Z,19.03
2019-06-01T04:02:33.675Z,17.97
2019-06-01T04:05:03.522Z,25.33
2019-06-01T04:07:32.532Z,18.77
2019-06-01T04:10:01.693Z,21.10
2019-06-01T04:12:30.585Z,22.53
2019-06-01T04:14:59.402Z,22.17
2019-06-01T04:17:28.220Z,23.17
2019-06-01T04:19:56.826Z,20.00
2019-06-01T04:22:25.565Z,17.30
2019-06-01T04:24:54.249Z,21.77
2019-06-01T04:27:24.532Z,18.90
2019-06-01T04:29:56.318Z,22.33
2019-06-01T04:32:25.141Z,21.00
2019-06-01T04:34:55.400Z,21.90
2019-06-01T04:37:24.226Z,24.67
2019-06-01T04:39:52.960Z,27.03
2019-06-01T04:42:22.116Z,24.40
2019-06-01T04:44:52.512Z,21.80
2019-06-01T04:47:21.385Z,20.07
2019-06-01T04:49:50.193Z,26.77
2019-06-01T04:52:18.881Z,23.77
2019-06-01T04:54:47.412Z,28.70
2019-06-01T04:57:16.239Z,28.23
2019-06-01T04:59:45.063Z,28.80
2019-06-01T05:02:13.775Z,24.93
2019-06-01T05:04:43.628Z,29.03
2019-06-01T05:07:13.493Z,28.77
2019-06-01T05:09:42.377Z,25.50
2019-06-01T05:12:11.424Z,24.43
2019-06-01T05:14:40.736Z,26.90
2019-06-01T05:17:10.151Z,24.60
2019-06-01T05:19:39.015Z,25.00
2019-06-01T05:22:08.401Z,27.30
2019-06-01T05:24:37.374Z,28.57
2019-06-01T05:27:06.939Z,24.30
2019-06-01T05:29:35.732Z,25.03
2019-06-01T05:32:04.766Z,24.87
2019-06-01T05:34:33.458Z,22.37
2019-06-01T05:37:02.123Z,22.80
2019-06-01T05:39:30.768Z,22.53
2019-06-01T05:41:59.554Z,27.37
2019-06-01T05:44:28.668Z,19.23
2019-06-01T05:46:57.337Z,23.80
2019-06-01T05:49:26.123Z,23.23
2019-06-01T05:51:54.855Z,22.20
2019-06-01T05:54:23.581Z,21.67
2019-06-01T05:56:52.261Z,24.63
2019-06-01T05:59:23.619Z,21.10
2019-06-01T06:01:52.557Z,23.80
2019-06-01T06:04:21.646Z,25.00
2019-06-01T06:06:50.352Z,25.33
2019-06-01T06:09:19.230Z,24.87
2019-06-01T06:11:47.956Z,25.53
2019-06-01T06:14:17.623Z,22.03
2019-06-01T06:16:46.434Z,22.17
2019-06-01T06:19:17.895Z,21.33
2019-06-01T06:21:45.641Z,30.00
2019-06-01T06:24:14.740Z,25.87
2019-06-01T06:26:43.464Z,23.77
2019-06-01T06:29:12.754Z,22.60
2019-06-01T06:31:41.439Z,23.70
2019-06-01T06:34:10.020Z,21.03
2019-06-01T06:36:38.797Z,22.27
2019-06-01T06:39:08.458Z,18.67
2019-06-01T06:41:37.109Z,26.90
2019-06-01T06:44:05.890Z,23.20
2019-06-01T06:46:34.952Z,25.20
2019-06-01T06:49:03.652Z,21.03
2019-06-01T06:51:32.406Z,22.00
2019-06-01T06:54:01.218Z,25.90
2019-06-01T06:56:29.945Z,20.37
2019-06-01T06:58:59.080Z,23.93
2019-06-01T07:01:27.734Z,24.13
2019-06-01T07:04:11.377Z,24.60
2019-06-01T07:06:30.048Z,23.77
2019-06-01T07:08:58.957Z,21.30
2019-06-01T07:11:27.611Z,25.57
2019-06-01T07:13:57.042Z,27.03
2019-06-01T07:16:25.741Z,17.50
2019-06-01T07:18:54.472Z,17.43
2019-06-01T07:21:26.153Z,21.10
2019-06-01T07:23:54.966Z,16.30
2019-06-01T07:26:26.225Z,18.10
2019-06-01T07:28:54.993Z,18.30
2019-06-01T07:31:26.195Z,18.90
2019-06-01T07:33:55.293Z,14.60
2019-06-01T07:36:27.169Z,13.67
2019-06-01T07:38:56.043Z,17.93
2019-06-01T07:41:24.750Z,14.43
2019-06-01T07:43:53.426Z,13.67
2019-06-01T07:46:22.810Z,12.20
2019-06-01T07:48:52.477Z,12.37
2019-06-01T07:51:23.214Z,11.70
2019-06-01T07:53:53.805Z,11.70
2019-06-01T07:56:26.526Z,14.50
2019-06-01T07:58:55.740Z,11.40
2019-06-01T08:01:25.781Z,10.90
2019-06-01T08:03:54.925Z,12.20
2019-06-01T08:06:24.430Z,10.43
2019-06-01T08:08:57.413Z,11.77
2019-06-01T08:11:30.113Z,9.60
2019-06-01T08:13:56.706Z,11.07
2019-06-01T08:16:25.944Z,9.67
2019-06-01T08:18:54.779Z,9.23
2019-06-01T08:21:24.014Z,9.93
2019-06-01T08:23:52.829Z,8.80
2019-06-01T08:26:24.549Z,9.05
2019-06-01T08:28:56.325Z,13.67
2019-06-01T08:31:24.975Z,10.70
2019-06-01T08:33:53.671Z,9.43
2019-06-01T08:36:23.217Z,10.30
2019-06-01T08:38:53.659Z,9.27
2019-06-01T08:41:25.580Z,10.63
2019-06-01T08:43:54.304Z,9.00
2019-06-01T08:46:25.529Z,9.73
2019-06-01T08:48:54.416Z,12.50
2019-06-01T08:51:26.351Z,8.90
2019-06-01T08:53:55.248Z,11.53
2019-06-01T08:56:28.245Z,11.80
2019-06-01T08:58:57.102Z,10.07
2019-06-01T09:01:26.416Z,7.30
2019-06-01T09:03:55.111Z,12.57
2019-06-01T09:06:25.336Z,7.87
2019-06-01T09:08:56.801Z,9.53
2019-06-01T09:11:25.528Z,19.20
2019-06-01T09:13:54.244Z,7.70
2019-06-01T09:16:25.540Z,7.13
2019-06-01T09:18:54.368Z,10.57
2019-06-01T09:21:25.352Z,10.50
2019-06-01T09:23:57.088Z,7.90
2019-06-01T09:26:26.322Z,9.67
2019-06-01T09:28:56.506Z,6.97
2019-06-01T09:31:26.271Z,8.00
2019-06-01T09:33:54.956Z,12.23
2019-06-01T09:36:23.980Z,11.50
2019-06-01T09:38:52.625Z,7.23
2019-06-01T09:41:23.787Z,8.40
2019-06-01T09:43:55.869Z,8.63
2019-06-01T09:46:24.601Z,7.67
2019-06-01T09:48:56.490Z,6.03
2019-06-01T09:51:25.196Z,9.77
2019-06-01T09:53:55.450Z,7.47
2019-06-01T09:56:29.122Z,8.53
2019-06-01T09:58:57.405Z,6.80
2019-06-01T10:01:26.084Z,11.07
2019-06-01T10:03:54.836Z,6.97
2019-06-01T10:06:23.661Z,6.93
2019-06-01T10:08:52.436Z,11.53
2019-06-01T10:11:21.499Z,8.13
2019-06-01T10:13:50.229Z,5.77
2019-06-01T10:16:19.255Z,5.50
2019-06-01T10:18:47.964Z,9.95
2019-06-01T10:21:16.906Z,6.13
2019-06-01T10:23:49.012Z,11.40
2019-06-01T10:26:16.159Z,7.40
2019-06-01T10:28:44.864Z,5.83
2019-06-01T10:31:13.487Z,6.97
2019-06-01T10:33:43.317Z,9.13
2019-06-01T10:36:20.296Z,6.80
2019-06-01T10:38:42.419Z,6.90
2019-06-01T10:41:11.106Z,10.70
2019-06-01T10:43:39.835Z,16.93
2019-06-01T10:46:08.609Z,16.90
2019-06-01T10:48:38.082Z,8.60
2019-06-01T10:51:06.868Z,7.93
2019-06-01T10:53:36.377Z,7.73
2019-06-01T10:56:05.406Z,12.10
2019-06-01T10:58:35.976Z,5.47
2019-06-01T11:01:04.519Z,6.40
2019-06-01T11:03:33.446Z,8.70
2019-06-01T11:06:03.352Z,7.40
2019-06-01T11:08:32.829Z,14.13
2019-06-01T11:11:01.538Z,7.73
2019-06-01T11:13:30.628Z,7.83
2019-06-01T11:15:59.331Z,5.23
2019-06-01T11:18:28.146Z,7.30
2019-06-01T11:20:56.653Z,8.03
2019-06-01T11:23:25.263Z,11.10
2019-06-01T11:25:56.951Z,24.43
2019-06-01T11:28:25.770Z,28.53
2019-06-01T11:30:54.479Z,14.03
2019-06-01T11:33:25.969Z,8.70
2019-06-01T11:35:54.677Z,10.40
2019-06-01T11:38:23.333Z,6.57
2019-06-01T11:40:52.112Z,9.20
2019-06-01T11:43:20.858Z,4.97
2019-06-01T11:45:49.640Z,8.70
2019-06-01T11:48:18.364Z,14.73
2019-06-01T11:50:47.384Z,7.60
2019-06-01T11:53:16.052Z,5.70
2019-06-01T11:55:45.569Z,4.93
2019-06-01T11:58:14.466Z,22.37
2019-06-01T12:00:43.773Z,9.43
2019-06-01T12:03:12.625Z,5.40
2019-06-01T12:05:42.118Z,8.20
2019-06-01T12:08:10.966Z,6.20
2019-06-01T12:10:39.622Z,4.80
2019-06-01T12:13:08.385Z,6.83
2019-06-01T12:15:38.287Z,4.60
2019-06-01T12:18:07.248Z,5.40
2019-06-01T12:20:36.631Z,6.93
2019-06-01T12:23:05.408Z,7.60
2019-06-01T12:25:34.635Z,6.67
2019-06-01T12:28:03.450Z,4.57
2019-06-01T12:30:32.167Z,4.30
2019-06-01T12:33:00.884Z,5.17
2019-06-01T12:35:29.551Z,4.27
2019-06-01T12:38:05.907Z,4.70
2019-06-01T12:40:29.104Z,4.50
2019-06-01T12:42:57.786Z,4.30
2019-06-01T12:45:26.514Z,5.27
2019-06-01T12:47:58.456Z,6.83
2019-06-01T12:50:25.555Z,4.03
2019-06-01T12:52:54.386Z,6.50
2019-06-01T12:55:24.533Z,4.33
2019-06-01T12:57:56.208Z,3.60
2019-06-01T13:00:25.161Z,7.17
2019-06-01T13:03:06.465Z,5.23
2019-06-01T13:05:25.856Z,8.33
2019-06-01T13:08:01.676Z,6.70
2019-06-01T13:10:24.870Z,5.03
2019-06-01T13:12:53.546Z,5.10
2019-06-01T13:15:22.266Z,4.83
2019-06-01T13:17:51.478Z,5.13
2019-06-01T13:20:20.981Z,3.80
2019-06-01T13:22:50.037Z,7.30
2019-06-01T13:25:18.961Z,4.93
2019-06-01T13:27:48.860Z,3.90
2019-06-01T13:30:17.766Z,3.87
2019-06-01T13:32:46.604Z,3.80
2019-06-01T13:35:15.236Z,4.00
2019-06-01T13:37:44.484Z,4.23
2019-06-01T13:40:13.758Z,4.27
2019-06-01T13:42:42.939Z,4.50
2019-06-01T13:45:11.958Z,4.83
2019-06-01T13:47:41.222Z,3.40
2019-06-01T13:50:09.976Z,4.90
2019-06-01T13:52:38.770Z,4.73
2019-06-01T13:55:08.231Z,8.97
2019-06-01T13:57:39.549Z,4.07
2019-06-01T14:00:08.282Z,4.37
2019-06-01T14:02:36.919Z,7.63
2019-06-01T14:05:07.269Z,3.50
2019-06-01T14:07:35.920Z,3.87
2019-06-01T14:10:06.876Z,5.10
2019-06-01T14:12:35.651Z,6.93
2019-06-01T14:15:07.051Z,3.20
2019-06-01T14:17:35.948Z,7.73
2019-06-01T14:20:07.220Z,5.73
2019-06-01T14:22:35.932Z,3.57
2019-06-01T14:25:12.841Z,7.53
2019-06-01T14:27:36.594Z,3.50
2019-06-01T14:30:07.190Z,3.10
2019-06-01T14:32:35.900Z,3.73
2019-06-01T14:35:06.672Z,9.43
2019-06-01T14:37:35.321Z,4.10
2019-06-01T14:40:05.290Z,3.57
2019-06-01T14:42:34.055Z,3.13
2019-06-01T14:45:04.992Z,3.40
2019-06-01T14:47:33.917Z,4.10
2019-06-01T14:50:02.690Z,2.27
2019-06-01T14:52:35.130Z,4.20
2019-06-01T14:55:02.157Z,2.60
2019-06-01T14:57:30.952Z,3.10
2019-06-01T14:59:59.666Z,10.90
2019-06-01T15:02:28.676Z,6.30
2019-06-01T15:04:58.639Z,2.50
2019-06-01T15:07:27.432Z,4.27
2019-06-01T15:09:56.394Z,4.47
2019-06-01T15:12:25.131Z,7.93
2019-06-01T15:14:55.554Z,3.40
2019-06-01T15:17:24.261Z,2.90
2019-06-01T15:19:54.356Z,2.47
2019-06-01T15:22:24.466Z,2.00
2019-06-01T15:24:56.514Z,3.00
2019-06-01T15:27:25.212Z,2.40
2019-06-01T15:29:57.013Z,3.90
2019-06-01T15:32:26.787Z,2.43
2019-06-01T15:34:56.565Z,2.70
2019-06-01T15:37:25.639Z,3.40
2019-06-01T15:39:54.658Z,2.67
2019-06-01T15:42:26.352Z,2.80
2019-06-01T15:44:55.191Z,3.70
2019-06-01T15:47:26.913Z,2.20
2019-06-01T15:49:55.800Z,2.47
2019-06-01T15:52:24.450Z,6.63
2019-06-01T15:54:54.263Z,5.83
2019-06-01T15:57:24.324Z,2.87
2019-06-01T15:59:54.617Z,6.53
2019-06-01T16:02:26.525Z,2.07
2019-06-01T16:04:55.407Z,2.60
2019-06-01T16:07:27.159Z,2.87
2019-06-01T16:09:57.317Z,4.30
2019-06-01T16:12:26.017Z,2.40
2019-06-01T16:14:55.462Z,2.70
2019-06-01T16:17:24.299Z,5.03
2019-06-01T16:19:55.786Z,4.23
2019-06-01T16:22:24.593Z,5.47
2019-06-01T16:24:56.214Z,5.20
2019-06-01T16:27:24.903Z,3.03
2019-06-01T16:29:54.573Z,3.53
2019-06-01T16:32:26.216Z,4.17
2019-06-01T16:34:56.797Z,3.80
2019-06-01T16:37:25.562Z,3.23
2019-06-01T16:40:01.652Z,2.73
2019-06-01T16:42:24.874Z,3.33
2019-06-01T16:44:53.692Z,3.30
2019-06-01T16:47:25.383Z,4.73
2019-06-01T16:49:57.601Z,3.13
2019-06-01T16:52:26.406Z,3.20
2019-06-01T16:54:56.193Z,3.30
2019-06-01T16:57:24.976Z,4.07
2019-06-01T16:59:53.680Z,6.33
2019-06-01T17:02:25.071Z,3.60
2019-06-01T17:04:56.465Z,2.83
2019-06-01T17:07:25.288Z,4.27
2019-06-01T17:09:58.620Z,4.63
2019-06-01T17:12:27.945Z,2.83
2019-06-01T17:14:57.198Z,4.07
2019-06-01T17:17:25.879Z,9.40
2019-06-01T17:19:54.555Z,6.90
2019-06-01T17:22:26.284Z,3.00
2019-06-01T17:24:54.995Z,4.23
2019-06-01T17:27:23.725Z,2.50
2019-06-01T17:29:55.634Z,2.93
2019-06-01T17:32:24.968Z,5.23
2019-06-01T17:34:55.225Z,4.90
2019-06-01T17:37:25.485Z,3.00
2019-06-01T17:39:54.920Z,2.60
2019-06-01T17:42:23.644Z,3.57
2019-06-01T17:44:52.563Z,4.50
2019-06-01T17:47:27.122Z,5.53
2019-06-01T17:49:55.230Z,3.30
2019-06-01T17:52:25.391Z,6.30
2019-06-01T17:54:56.880Z,2.80
2019-06-01T17:57:25.603Z,3.07
2019-06-01T17:59:54.390Z,5.53
2019-06-01T18:02:24.679Z,5.90
2019-06-01T18:04:56.365Z,2.70
2019-06-01T18:07:25.065Z,3.30
2019-06-01T18:09:55.241Z,8.27
2019-06-01T18:12:25.481Z,3.10
2019-06-01T18:14:57.147Z,2.60
2019-06-01T18:17:26.002Z,7.27
2019-06-01T18:19:54.674Z,2.70
2019-06-01T18:22:26.416Z,2.63
2019-06-01T18:24:55.548Z,2.90
2019-06-01T18:27:24.264Z,4.80
2019-06-01T18:29:54.433Z,3.83
2019-06-01T18:32:24.589Z,2.80
2019-06-01T18:34:55.984Z,3.33
2019-06-01T18:37:24.709Z,3.20
2019-06-01T18:39:53.428Z,3.83
2019-06-01T18:42:25.109Z,4.87
2019-06-01T18:44:55.619Z,6.07
2019-06-01T18:47:32.263Z,5.73
2019-06-01T18:49:55.063Z,5.80
2019-06-01T18:52:24.608Z,7.40
2019-06-01T18:54:53.424Z,8.47
2019-06-01T18:57:22.319Z,7.40
2019-06-01T18:59:51.175Z,6.83
2019-06-01T19:02:19.901Z,15.80
2019-06-01T19:04:48.725Z,11.30
2019-06-01T19:07:17.437Z,11.70
2019-06-01T19:09:46.171Z,11.67
2019-06-01T19:12:15.573Z,14.80
2019-06-01T19:14:44.330Z,13.43
2019-06-01T19:17:14.345Z,13.40
2019-06-01T19:19:43.084Z,25.93
2019-06-01T19:22:12.518Z,17.90
2019-06-01T19:24:41.337Z,15.27
2019-06-01T19:27:10.727Z,23.07
2019-06-01T19:29:39.587Z,17.07
2019-06-01T19:32:08.768Z,12.70
2019-06-01T19:34:37.634Z,12.13
2019-06-01T19:37:09.124Z,11.47
2019-06-01T19:39:38.171Z,8.20
2019-06-01T19:42:09.139Z,8.53
2019-06-01T19:44:38.081Z,5.57
2019-06-01T19:47:08.249Z,8.37
2019-06-01T19:49:43.648Z,8.85
2019-06-01T19:52:10.839Z,8.30
2019-06-01T19:54:39.955Z,4.97
2019-06-01T19:57:09.715Z,6.87
2019-06-01T19:59:39.026Z,8.00
2019-06-01T20:02:23.134Z,13.30
2019-06-01T20:04:38.203Z,12.40
2019-06-01T20:07:08.418Z,24.67
2019-06-01T20:09:39.855Z,11.23
2019-06-01T20:12:12.921Z,9.60
2019-06-01T20:14:39.042Z,6.27
2019-06-01T20:17:07.770Z,9.60
2019-06-01T20:19:39.578Z,11.10
2019-06-01T20:22:08.282Z,9.80
2019-06-01T20:24:39.784Z,10.60
2019-06-01T20:27:08.517Z,8.10
2019-06-01T20:29:37.244Z,8.83
2019-06-01T20:32:06.268Z,8.30
2019-06-01T20:34:36.656Z,9.43
2019-06-01T20:37:06.050Z,10.70
2019-06-01T20:39:36.676Z,10.20
2019-06-01T20:42:20.366Z,7.40
2019-06-01T20:44:37.420Z,8.27
2019-06-01T20:47:07.587Z,7.33
2019-06-01T20:49:39.486Z,6.80
2019-06-01T20:52:08.215Z,6.70
2019-06-01T20:54:38.785Z,8.00
2019-06-01T20:57:07.503Z,6.50
2019-06-01T20:59:36.736Z,9.03
2019-06-01T21:02:08.337Z,11.17
2019-06-01T21:04:40.135Z,9.47
2019-06-01T21:07:08.947Z,8.57
2019-06-01T21:09:37.762Z,9.60
2019-06-01T21:12:06.472Z,8.47
2019-06-01T21:14:35.188Z,11.70
2019-06-01T21:17:05.008Z,9.30
2019-06-01T21:19:34.636Z,12.80
2019-06-01T21:22:04.972Z,10.93
2019-06-01T21:24:35.645Z,11.00
2019-06-01T21:27:06.556Z,9.80
2019-06-01T21:29:35.283Z,13.07
2019-06-01T21:32:03.999Z,9.00
2019-06-01T21:34:33.120Z,11.03
2019-06-01T21:37:02.017Z,19.30
2019-06-01T21:39:31.173Z,16.10
2019-06-01T21:42:00.000Z,20.17
2019-06-01T21:44:29.116Z,20.50
2019-06-01T21:46:57.931Z,16.50
2019-06-01T21:49:26.659Z,16.83
2019-06-01T21:51:55.476Z,14.60
2019-06-01T21:54:24.651Z,14.03
2019-06-01T21:56:53.624Z,14.43
2019-06-01T21:59:22.765Z,15.50
2019-06-01T22:01:51.664Z,15.90
2019-06-01T22:04:20.789Z,17.50
2019-06-01T22:06:49.710Z,16.50
2019-06-01T22:09:19.100Z,11.00
2019-06-01T22:11:47.846Z,12.90
2019-06-01T22:14:17.386Z,21.67
2019-06-01T22:16:46.311Z,10.40
2019-06-01T22:19:15.022Z,9.70
2019-06-01T22:21:43.765Z,11.93
2019-06-01T22:24:12.909Z,14.83
2019-06-01T22:26:41.728Z,11.90
2019-06-01T22:29:10.382Z,13.37
2019-06-01T22:31:39.247Z,11.10
2019-06-01T22:34:08.369Z,12.70
2019-06-01T22:36:40.070Z,13.27
2019-06-01T22:39:09.394Z,11.90
2019-06-01T22:41:38.126Z,12.77
2019-06-01T22:44:08.280Z,14.40
2019-06-01T22:46:39.762Z,12.60
2019-06-01T22:49:08.474Z,14.30
2019-06-01T22:51:37.641Z,11.13
2019-06-01T22:54:09.182Z,9.37
2019-06-01T22:56:37.800Z,10.17
2019-06-01T22:59:06.455Z,12.53
2019-06-01T23:01:35.300Z,14.00
2019-06-01T23:04:03.938Z,10.90
2019-06-01T23:06:32.666Z,15.30
2019-06-01T23:09:01.323Z,12.37
2019-06-01T23:11:29.976Z,11.80
2019-06-01T23:13:58.741Z,9.97
2019-06-01T23:16:30.240Z,13.43
2019-06-01T23:18:58.968Z,10.27
2019-06-01T23:21:27.897Z,9.10
2019-06-01T23:23:57.049Z,12.10
2019-06-01T23:26:26.206Z,9.10
2019-06-01T23:28:55.001Z,9.97
2019-06-01T23:31:24.284Z,10.20
2019-06-01T23:33:52.939Z,11.43
2019-06-01T23:36:22.478Z,9.67
2019-06-01T23:38:51.168Z,11.23
2019-06-01T23:41:19.891Z,11.73
2019-06-01T23:43:48.714Z,11.27
2019-06-01T23:46:17.389Z,10.83
2019-06-01T23:48:46.042Z,11.60
2019-06-01T23:51:15.162Z,12.23
2019-06-01T23:53:44.002Z,16.00
2019-06-01T23:56:12.710Z,12.00
2019-06-01T23:58:41.376Z,15.33
